sensor_id;sensor_type;location;lat;lon;timestamp;temperature;humidity
9915;DHT22;4996;48.746;9.174;2022-09-09T00:04:09;16.70;99.90
9915;DHT22;4996;48.746;9.174;2022-09-09T00:09:22;16.70;99.90
9915;DHT22;4996;48.746;9.174;2022-09-09T00:11:56;16.70;99.90
9915;DHT22;4996;48.746;9.174;2022-09-09T00:17:17;16.60;99.90
9915;DHT22;4996;48.746;9.174;2022-09-09T00:19:57;16.70;99.90
9915;DHT22;4996;48.746;9.174;2022-09-09T00:22:27;16.60;99.90
9915;DHT22;4996;48.746;9.174;2022-09-09T00:24:55;16.60;99.90
9915;DHT22;4996;48.746;9.174;2022-09-09T00:27:31;16.60;99.90
9915;DHT22;4996;48.746;9.174;2022-09-09T00:30:18;16.60;99.90
9915;DHT22;4996;48.746;9.174;2022-09-09T00:32:47;16.60;99.90
9915;DHT22;4996;48.746;9.174;2022-09-09T00:35:27;16.80;99.90
9915;DHT22;4996;48.746;9.174;2022-09-09T00:37:56;16.60;99.90
9915;DHT22;4996;48.746;9.174;2022-09-09T01:02:16;17.10;99.90
9915;DHT22;4996;48.746;9.174;2022-09-09T01:04:43;17.10;99.90
9915;DHT22;4996;48.746;9.174;2022-09-09T01:07:27;17.10;99.90
9915;DHT22;4996;48.746;9.174;2022-09-09T01:09:58;17.20;99.90
9915;DHT22;4996;48.746;9.174;2022-09-09T01:12:42;17.20;99.90
9915;DHT22;4996;48.746;9.174;2022-09-09T01:15:13;17.30;99.90
9915;DHT22;4996;48.746;9.174;2022-09-09T01:28:10;17.40;99.90
9915;DHT22;4996;48.746;9.174;2022-09-09T01:30:40;17.40;99.90
9915;DHT22;4996;48.746;9.174;2022-09-09T01:33:13;17.40;99.90
9915;DHT22;4996;48.746;9.174;2022-09-09T01:35:58;17.40;99.90
9915;DHT22;4996;48.746;9.174;2022-09-09T01:38:26;17.40;99.90
9915;DHT22;4996;48.746;9.174;2022-09-09T01:40:53;17.40;99.90
9915;DHT22;4996;48.746;9.174;2022-09-09T01:43:20;17.40;99.90
9915;DHT22;4996;48.746;9.174;2022-09-09T01:45:46;17.40;99.90
9915;DHT22;4996;48.746;9.174;2022-09-09T01:48:14;17.30;99.90
9915;DHT22;4996;48.746;9.174;2022-09-09T01:50:39;17.30;99.90
9915;DHT22;4996;48.746;9.174;2022-09-09T01:53:05;17.30;99.90
9915;DHT22;4996;48.746;9.174;2022-09-09T01:55:35;17.30;99.90
9915;DHT22;4996;48.746;9.174;2022-09-09T01:58:22;17.20;99.90
9915;DHT22;4996;48.746;9.174;2022-09-09T02:03:32;17.20;99.90
9915;DHT22;4996;48.746;9.174;2022-09-09T02:06:36;17.10;99.90
9915;DHT22;4996;48.746;9.174;2022-09-09T02:09:05;17.10;99.90
9915;DHT22;4996;48.746;9.174;2022-09-09T02:11:32;17.10;99.90
9915;DHT22;4996;48.746;9.174;2022-09-09T02:14:02;17.10;99.90
9915;DHT22;4996;48.746;9.174;2022-09-09T02:21:43;17.10;99.90
9915;DHT22;4996;48.746;9.174;2022-09-09T02:24:12;17.00;99.90
9915;DHT22;4996;48.746;9.174;2022-09-09T02:26:41;17.00;99.90
9915;DHT22;4996;48.746;9.174;2022-09-09T02:29:17;16.90;99.90
9915;DHT22;4996;48.746;9.174;2022-09-09T02:31:45;17.00;99.90
9915;DHT22;4996;48.746;9.174;2022-09-09T02:34:13;16.90;99.90
9915;DHT22;4996;48.746;9.174;2022-09-09T02:36:42;16.90;99.90
9915;DHT22;4996;48.746;9.174;2022-09-09T02:39:10;16.90;99.90
9915;DHT22;4996;48.746;9.174;2022-09-09T02:41:38;16.80;99.90
9915;DHT22;4996;48.746;9.174;2022-09-09T02:44:16;16.80;99.90
9915;DHT22;4996;48.746;9.174;2022-09-09T02:47:46;16.70;99.90
9915;DHT22;4996;48.746;9.174;2022-09-09T02:55:33;16.70;99.90
9915;DHT22;4996;48.746;9.174;2022-09-09T02:58:04;16.60;99.90
9915;DHT22;4996;48.746;9.174;2022-09-09T03:00:31;16.70;99.90
9915;DHT22;4996;48.746;9.174;2022-09-09T03:02:58;16.60;99.90
9915;DHT22;4996;48.746;9.174;2022-09-09T03:05:23;16.50;99.90
9915;DHT22;4996;48.746;9.174;2022-09-09T03:07:49;16.60;99.90
9915;DHT22;4996;48.746;9.174;2022-09-09T03:10:16;16.50;99.90
9915;DHT22;4996;48.746;9.174;2022-09-09T03:12:41;16.60;99.90
9915;DHT22;4996;48.746;9.174;2022-09-09T03:15:07;16.60;99.90
9915;DHT22;4996;48.746;9.174;2022-09-09T03:17:33;16.70;99.90
9915;DHT22;4996;48.746;9.174;2022-09-09T03:19:59;16.70;99.90
9915;DHT22;4996;48.746;9.174;2022-09-09T03:22:26;16.70;99.90
9915;DHT22;4996;48.746;9.174;2022-09-09T03:24:52;16.80;99.90
9915;DHT22;4996;48.746;9.174;2022-09-09T03:27:18;16.70;99.90
9915;DHT22;4996;48.746;9.174;2022-09-09T03:29:45;16.60;99.90
9915;DHT22;4996;48.746;9.174;2022-09-09T03:32:10;16.60;99.90
9915;DHT22;4996;48.746;9.174;2022-09-09T03:34:36;16.60;99.90
9915;DHT22;4996;48.746;9.174;2022-09-09T03:37:04;16.60;99.90
9915;DHT22;4996;48.746;9.174;2022-09-09T03:39:31;16.60;99.90
9915;DHT22;4996;48.746;9.174;2022-09-09T03:41:56;16.50;99.90
9915;DHT22;4996;48.746;9.174;2022-09-09T03:44:22;16.50;99.90
9915;DHT22;4996;48.746;9.174;2022-09-09T03:46:47;16.50;99.90
9915;DHT22;4996;48.746;9.174;2022-09-09T03:49:13;16.50;99.90
9915;DHT22;4996;48.746;9.174;2022-09-09T03:51:39;16.50;99.90
9915;DHT22;4996;48.746;9.174;2022-09-09T03:54:06;16.50;99.90
9915;DHT22;4996;48.746;9.174;2022-09-09T03:56:34;16.60;99.90
9915;DHT22;4996;48.746;9.174;2022-09-09T03:58:59;16.60;99.90
9915;DHT22;4996;48.746;9.174;2022-09-09T04:01:25;16.50;99.90
9915;DHT22;4996;48.746;9.174;2022-09-09T04:03:51;16.40;99.90
9915;DHT22;4996;48.746;9.174;2022-09-09T04:06:18;16.40;99.90
9915;DHT22;4996;48.746;9.174;2022-09-09T04:08:44;16.40;99.90
9915;DHT22;4996;48.746;9.174;2022-09-09T04:11:10;16.40;99.90
9915;DHT22;4996;48.746;9.174;2022-09-09T04:13:37;16.20;99.90
9915;DHT22;4996;48.746;9.174;2022-09-09T04:16:05;16.20;99.90
9915;DHT22;4996;48.746;9.174;2022-09-09T04:18:30;16.20;99.90
9915;DHT22;4996;48.746;9.174;2022-09-09T04:20:56;16.10;99.90
9915;DHT22;4996;48.746;9.174;2022-09-09T04:23:24;16.00;99.90
9915;DHT22;4996;48.746;9.174;2022-09-09T04:25:52;16.00;99.90
9915;DHT22;4996;48.746;9.174;2022-09-09T04:28:19;16.00;99.90
9915;DHT22;4996;48.746;9.174;2022-09-09T04:30:45;16.00;99.90
9915;DHT22;4996;48.746;9.174;2022-09-09T04:33:12;16.10;99.90
9915;DHT22;4996;48.746;9.174;2022-09-09T04:35:39;16.10;99.90
9915;DHT22;4996;48.746;9.174;2022-09-09T04:38:05;16.10;99.90
9915;DHT22;4996;48.746;9.174;2022-09-09T04:40:34;16.10;99.90
9915;DHT22;4996;48.746;9.174;2022-09-09T04:43:02;16.10;99.90
9915;DHT22;4996;48.746;9.174;2022-09-09T04:45:28;16.20;99.90
9915;DHT22;4996;48.746;9.174;2022-09-09T04:47:54;16.20;99.90
9915;DHT22;4996;48.746;9.174;2022-09-09T04:50:20;16.00;99.90
9915;DHT22;4996;48.746;9.174;2022-09-09T04:52:46;16.10;99.90
9915;DHT22;4996;48.746;9.174;2022-09-09T04:55:11;16.10;99.90
9915;DHT22;4996;48.746;9.174;2022-09-09T04:57:38;16.20;99.90
9915;DHT22;4996;48.746;9.174;2022-09-09T05:00:04;16.20;99.90
9915;DHT22;4996;48.746;9.174;2022-09-09T05:02:30;16.30;99.90
9915;DHT22;4996;48.746;9.174;2022-09-09T05:04:57;16.30;99.90
9915;DHT22;4996;48.746;9.174;2022-09-09T05:07:23;16.30;99.90
9915;DHT22;4996;48.746;9.174;2022-09-09T05:09:49;16.20;99.90
9915;DHT22;4996;48.746;9.174;2022-09-09T05:12:15;16.30;99.90
9915;DHT22;4996;48.746;9.174;2022-09-09T05:14:44;16.30;99.90
9915;DHT22;4996;48.746;9.174;2022-09-09T05:17:10;16.30;99.90
9915;DHT22;4996;48.746;9.174;2022-09-09T05:19:36;16.20;99.90
9915;DHT22;4996;48.746;9.174;2022-09-09T05:22:02;16.20;99.90
9915;DHT22;4996;48.746;9.174;2022-09-09T05:24:28;16.30;99.90
9915;DHT22;4996;48.746;9.174;2022-09-09T05:26:53;16.30;99.90
9915;DHT22;4996;48.746;9.174;2022-09-09T05:29:19;16.30;99.90
9915;DHT22;4996;48.746;9.174;2022-09-09T05:31:45;16.30;99.90
9915;DHT22;4996;48.746;9.174;2022-09-09T05:34:11;16.30;99.90
9915;DHT22;4996;48.746;9.174;2022-09-09T05:36:37;16.40;99.90
9915;DHT22;4996;48.746;9.174;2022-09-09T05:39:03;16.50;99.90
9915;DHT22;4996;48.746;9.174;2022-09-09T05:41:29;16.60;99.90
9915;DHT22;4996;48.746;9.174;2022-09-09T05:43:55;16.60;99.90
9915;DHT22;4996;48.746;9.174;2022-09-09T05:46:22;16.60;99.90
9915;DHT22;4996;48.746;9.174;2022-09-09T05:48:49;16.60;99.90
9915;DHT22;4996;48.746;9.174;2022-09-09T05:51:24;16.70;99.90
9915;DHT22;4996;48.746;9.174;2022-09-09T05:53:51;16.70;99.90
9915;DHT22;4996;48.746;9.174;2022-09-09T05:56:24;16.70;99.90
9915;DHT22;4996;48.746;9.174;2022-09-09T05:58:51;16.80;99.90
9915;DHT22;4996;48.746;9.174;2022-09-09T06:01:21;16.90;99.90
9915;DHT22;4996;48.746;9.174;2022-09-09T06:03:48;17.00;99.90
9915;DHT22;4996;48.746;9.174;2022-09-09T06:06:16;17.00;99.90
9915;DHT22;4996;48.746;9.174;2022-09-09T06:08:44;17.00;99.90
9915;DHT22;4996;48.746;9.174;2022-09-09T06:11:12;17.10;99.90
9915;DHT22;4996;48.746;9.174;2022-09-09T06:13:39;17.20;99.90
9915;DHT22;4996;48.746;9.174;2022-09-09T06:16:09;17.10;99.90
9915;DHT22;4996;48.746;9.174;2022-09-09T06:18:37;17.20;99.90
9915;DHT22;4996;48.746;9.174;2022-09-09T06:21:07;17.20;99.90
9915;DHT22;4996;48.746;9.174;2022-09-09T06:23:34;17.30;99.90
9915;DHT22;4996;48.746;9.174;2022-09-09T06:26:07;17.20;99.90
9915;DHT22;4996;48.746;9.174;2022-09-09T06:28:35;17.30;99.90
9915;DHT22;4996;48.746;9.174;2022-09-09T06:31:01;17.20;99.90
9915;DHT22;4996;48.746;9.174;2022-09-09T06:33:31;17.30;99.90
9915;DHT22;4996;48.746;9.174;2022-09-09T06:35:57;17.40;99.90
9915;DHT22;4996;48.746;9.174;2022-09-09T06:38:23;17.50;99.90
9915;DHT22;4996;48.746;9.174;2022-09-09T06:40:56;17.50;99.90
9915;DHT22;4996;48.746;9.174;2022-09-09T06:43:22;17.50;99.90
9915;DHT22;4996;48.746;9.174;2022-09-09T06:48:31;17.60;99.90
9915;DHT22;4996;48.746;9.174;2022-09-09T06:51:07;17.60;99.90
9915;DHT22;4996;48.746;9.174;2022-09-09T06:53:34;17.60;99.90
9915;DHT22;4996;48.746;9.174;2022-09-09T06:56:18;17.80;99.90
9915;DHT22;4996;48.746;9.174;2022-09-09T06:58:44;17.90;99.90
9915;DHT22;4996;48.746;9.174;2022-09-09T07:01:12;18.10;99.90
9915;DHT22;4996;48.746;9.174;2022-09-09T07:03:39;18.20;99.90
9915;DHT22;4996;48.746;9.174;2022-09-09T07:06:05;18.30;99.90
9915;DHT22;4996;48.746;9.174;2022-09-09T07:08:31;18.40;99.90
9915;DHT22;4996;48.746;9.174;2022-09-09T07:11:04;18.50;99.90
9915;DHT22;4996;48.746;9.174;2022-09-09T07:13:30;18.60;99.90
9915;DHT22;4996;48.746;9.174;2022-09-09T07:16:04;18.80;99.90
9915;DHT22;4996;48.746;9.174;2022-09-09T07:18:30;18.70;99.90
9915;DHT22;4996;48.746;9.174;2022-09-09T07:20:56;18.80;99.90
9915;DHT22;4996;48.746;9.174;2022-09-09T07:23:22;18.70;99.90
9915;DHT22;4996;48.746;9.174;2022-09-09T07:25:48;18.80;99.90
9915;DHT22;4996;48.746;9.174;2022-09-09T07:28:14;19.00;99.90
9915;DHT22;4996;48.746;9.174;2022-09-09T07:30:40;19.10;99.90
9915;DHT22;4996;48.746;9.174;2022-09-09T07:33:06;19.20;99.90
9915;DHT22;4996;48.746;9.174;2022-09-09T07:35:32;19.30;99.90
9915;DHT22;4996;48.746;9.174;2022-09-09T07:37:57;19.40;99.90
9915;DHT22;4996;48.746;9.174;2022-09-09T07:40:24;19.40;99.90
9915;DHT22;4996;48.746;9.174;2022-09-09T07:42:49;19.60;99.90
9915;DHT22;4996;48.746;9.174;2022-09-09T07:45:15;19.90;99.90
9915;DHT22;4996;48.746;9.174;2022-09-09T07:47:40;20.10;99.90
9915;DHT22;4996;48.746;9.174;2022-09-09T07:50:10;20.10;99.90
9915;DHT22;4996;48.746;9.174;2022-09-09T07:52:39;20.20;99.90
9915;DHT22;4996;48.746;9.174;2022-09-09T07:55:04;20.20;99.90
9915;DHT22;4996;48.746;9.174;2022-09-09T07:57:31;20.20;99.90
9915;DHT22;4996;48.746;9.174;2022-09-09T07:59:57;20.30;99.90
9915;DHT22;4996;48.746;9.174;2022-09-09T08:02:23;20.20;99.90
9915;DHT22;4996;48.746;9.174;2022-09-09T08:04:50;20.40;99.90
9915;DHT22;4996;48.746;9.174;2022-09-09T08:07:17;20.70;99.90
9915;DHT22;4996;48.746;9.174;2022-09-09T08:09:42;20.80;99.90
9915;DHT22;4996;48.746;9.174;2022-09-09T08:12:09;20.70;99.90
9915;DHT22;4996;48.746;9.174;2022-09-09T08:14:34;20.70;99.90
9915;DHT22;4996;48.746;9.174;2022-09-09T08:17:00;20.80;99.90
9915;DHT22;4996;48.746;9.174;2022-09-09T08:19:26;20.80;99.90
9915;DHT22;4996;48.746;9.174;2022-09-09T08:21:54;21.10;99.90
9915;DHT22;4996;48.746;9.174;2022-09-09T08:24:20;21.20;99.90
9915;DHT22;4996;48.746;9.174;2022-09-09T08:26:47;21.40;99.90
9915;DHT22;4996;48.746;9.174;2022-09-09T08:29:14;21.60;99.90
9915;DHT22;4996;48.746;9.174;2022-09-09T08:31:43;21.70;99.90
9915;DHT22;4996;48.746;9.174;2022-09-09T08:34:10;22.20;99.90
9915;DHT22;4996;48.746;9.174;2022-09-09T08:36:44;22.40;99.90
9915;DHT22;4996;48.746;9.174;2022-09-09T08:39:12;22.60;99.90
9915;DHT22;4996;48.746;9.174;2022-09-09T08:47:12;22.30;99.90
9915;DHT22;4996;48.746;9.174;2022-09-09T08:49:46;22.30;99.90
9915;DHT22;4996;48.746;9.174;2022-09-09T08:52:37;22.40;99.90
9915;DHT22;4996;48.746;9.174;2022-09-09T08:55:26;22.60;99.90
9915;DHT22;4996;48.746;9.174;2022-09-09T08:57:55;22.90;99.90
9915;DHT22;4996;48.746;9.174;2022-09-09T09:00:21;23.10;99.90
9915;DHT22;4996;48.746;9.174;2022-09-09T09:03:15;23.40;99.90
9915;DHT22;4996;48.746;9.174;2022-09-09T09:05:51;23.50;99.90
9915;DHT22;4996;48.746;9.174;2022-09-09T09:08:40;23.60;99.90
9915;DHT22;4996;48.746;9.174;2022-09-09T09:11:08;23.70;99.90
9915;DHT22;4996;48.746;9.174;2022-09-09T09:14:30;23.60;99.90
9915;DHT22;4996;48.746;9.174;2022-09-09T09:16:38;23.60;99.90
9915;DHT22;4996;48.746;9.174;2022-09-09T09:19:13;23.20;99.90
9915;DHT22;4996;48.746;9.174;2022-09-09T09:21:43;22.90;99.90
9915;DHT22;4996;48.746;9.174;2022-09-09T09:26:42;22.50;99.90
9915;DHT22;4996;48.746;9.174;2022-09-09T09:29:11;21.70;99.90
9915;DHT22;4996;48.746;9.174;2022-09-09T09:31:37;20.80;99.90
9915;DHT22;4996;48.746;9.174;2022-09-09T09:34:03;19.80;99.90
9915;DHT22;4996;48.746;9.174;2022-09-09T09:36:45;19.00;99.90
9915;DHT22;4996;48.746;9.174;2022-09-09T09:39:32;18.90;99.90
9915;DHT22;4996;48.746;9.174;2022-09-09T09:42:16;18.90;99.90
9915;DHT22;4996;48.746;9.174;2022-09-09T09:44:43;19.30;99.90
9915;DHT22;4996;48.746;9.174;2022-09-09T09:47:28;19.60;99.90
9915;DHT22;4996;48.746;9.174;2022-09-09T09:49:59;20.00;99.90
9915;DHT22;4996;48.746;9.174;2022-09-09T09:52:27;20.70;99.90
9915;DHT22;4996;48.746;9.174;2022-09-09T09:54:56;21.10;99.90
9915;DHT22;4996;48.746;9.174;2022-09-09T09:57:30;21.60;99.90
9915;DHT22;4996;48.746;9.174;2022-09-09T10:00:19;21.90;99.90
9915;DHT22;4996;48.746;9.174;2022-09-09T10:02:46;22.30;99.90
9915;DHT22;4996;48.746;9.174;2022-09-09T10:07:39;22.20;99.90
9915;DHT22;4996;48.746;9.174;2022-09-09T10:10:05;22.20;99.90
9915;DHT22;4996;48.746;9.174;2022-09-09T10:32:05;23.10;99.90
9915;DHT22;4996;48.746;9.174;2022-09-09T10:34:58;22.90;99.90
9915;DHT22;4996;48.746;9.174;2022-09-09T10:38:01;22.80;99.90
9915;DHT22;4996;48.746;9.174;2022-09-09T10:43:35;22.90;99.90
9915;DHT22;4996;48.746;9.174;2022-09-09T10:52:01;23.30;99.90
9915;DHT22;4996;48.746;9.174;2022-09-09T10:57:08;23.00;99.90
9915;DHT22;4996;48.746;9.174;2022-09-09T10:59:47;23.10;99.90
9915;DHT22;4996;48.746;9.174;2022-09-09T11:04:52;23.50;99.90
9915;DHT22;4996;48.746;9.174;2022-09-09T11:07:39;23.80;99.90
9915;DHT22;4996;48.746;9.174;2022-09-09T11:10:39;24.10;99.90
9915;DHT22;4996;48.746;9.174;2022-09-09T11:13:11;24.00;99.90
9915;DHT22;4996;48.746;9.174;2022-09-09T11:15:49;23.90;99.90
9915;DHT22;4996;48.746;9.174;2022-09-09T11:18:20;23.80;99.90
9915;DHT22;4996;48.746;9.174;2022-09-09T11:20:50;23.90;99.90
9915;DHT22;4996;48.746;9.174;2022-09-09T11:23:25;23.90;99.90
9915;DHT22;4996;48.746;9.174;2022-09-09T11:25:56;23.80;99.90
9915;DHT22;4996;48.746;9.174;2022-09-09T11:29:05;23.30;99.90
9915;DHT22;4996;48.746;9.174;2022-09-09T11:34:21;22.10;99.90
9915;DHT22;4996;48.746;9.174;2022-09-09T11:42:17;21.70;99.90
9915;DHT22;4996;48.746;9.174;2022-09-09T11:44:43;21.70;99.90
9915;DHT22;4996;48.746;9.174;2022-09-09T11:49:44;21.30;99.90
9915;DHT22;4996;48.746;9.174;2022-09-09T11:52:25;21.20;99.90
9915;DHT22;4996;48.746;9.174;2022-09-09T11:55:19;21.30;99.90
9915;DHT22;4996;48.746;9.174;2022-09-09T11:58:00;21.20;99.90
9915;DHT22;4996;48.746;9.174;2022-09-09T12:00:36;21.50;99.90
9915;DHT22;4996;48.746;9.174;2022-09-09T12:03:04;22.10;99.90
9915;DHT22;4996;48.746;9.174;2022-09-09T12:05:41;22.60;99.90
9915;DHT22;4996;48.746;9.174;2022-09-09T12:08:09;23.80;99.90
9915;DHT22;4996;48.746;9.174;2022-09-09T12:10:39;24.40;99.90
9915;DHT22;4996;48.746;9.174;2022-09-09T12:13:18;24.40;99.90
9915;DHT22;4996;48.746;9.174;2022-09-09T12:15:53;23.90;99.90
9915;DHT22;4996;48.746;9.174;2022-09-09T12:18:24;23.50;99.90
9915;DHT22;4996;48.746;9.174;2022-09-09T12:23:47;22.80;99.90
9915;DHT22;4996;48.746;9.174;2022-09-09T12:31:51;24.20;99.90
9915;DHT22;4996;48.746;9.174;2022-09-09T12:34:51;24.50;99.90
9915;DHT22;4996;48.746;9.174;2022-09-09T12:37:30;24.60;98.90
9915;DHT22;4996;48.746;9.174;2022-09-09T12:40:05;25.70;97.60
9915;DHT22;4996;48.746;9.174;2022-09-09T12:42:31;26.10;96.00
9915;DHT22;4996;48.746;9.174;2022-09-09T12:45:03;26.40;95.90
9915;DHT22;4996;48.746;9.174;2022-09-09T12:47:38;27.20;94.90
9915;DHT22;4996;48.746;9.174;2022-09-09T12:50:24;26.70;93.40
9915;DHT22;4996;48.746;9.174;2022-09-09T12:52:59;26.20;94.30
9915;DHT22;4996;48.746;9.174;2022-09-09T12:55:34;25.50;95.60
9915;DHT22;4996;48.746;9.174;2022-09-09T12:58:04;25.00;96.70
9915;DHT22;4996;48.746;9.174;2022-09-09T13:00:32;24.50;97.70
9915;DHT22;4996;48.746;9.174;2022-09-09T13:03:01;23.90;98.30
9915;DHT22;4996;48.746;9.174;2022-09-09T13:05:38;23.90;98.70
9915;DHT22;4996;48.746;9.174;2022-09-09T13:08:12;23.60;99.10
9915;DHT22;4996;48.746;9.174;2022-09-09T13:10:47;23.60;98.80
9915;DHT22;4996;48.746;9.174;2022-09-09T13:13:19;23.20;99.60
9915;DHT22;4996;48.746;9.174;2022-09-09T13:15:51;23.10;99.30
9915;DHT22;4996;48.746;9.174;2022-09-09T13:18:22;22.90;99.90
9915;DHT22;4996;48.746;9.174;2022-09-09T13:20:49;22.90;99.30
9915;DHT22;4996;48.746;9.174;2022-09-09T13:23:16;22.70;99.90
9915;DHT22;4996;48.746;9.174;2022-09-09T13:25:56;22.80;99.90
9915;DHT22;4996;48.746;9.174;2022-09-09T13:28:25;23.00;99.50
9915;DHT22;4996;48.746;9.174;2022-09-09T13:31:01;23.10;99.60
9915;DHT22;4996;48.746;9.174;2022-09-09T13:33:36;23.30;99.40
9915;DHT22;4996;48.746;9.174;2022-09-09T13:36:08;23.60;98.50
9915;DHT22;4996;48.746;9.174;2022-09-09T13:38:57;23.70;97.20
9915;DHT22;4996;48.746;9.174;2022-09-09T13:41:34;23.30;96.80
9915;DHT22;4996;48.746;9.174;2022-09-09T13:44:02;23.30;97.10
9915;DHT22;4996;48.746;9.174;2022-09-09T13:46:39;23.00;97.10
9915;DHT22;4996;48.746;9.174;2022-09-09T13:51:42;22.70;98.20
9915;DHT22;4996;48.746;9.174;2022-09-09T13:54:13;22.90;98.60
9915;DHT22;4996;48.746;9.174;2022-09-09T13:56:40;22.80;98.80
9915;DHT22;4996;48.746;9.174;2022-09-09T13:59:09;22.80;98.90
9915;DHT22;4996;48.746;9.174;2022-09-09T14:01:36;22.50;99.00
9915;DHT22;4996;48.746;9.174;2022-09-09T14:04:03;22.60;99.30
9915;DHT22;4996;48.746;9.174;2022-09-09T14:06:29;22.80;99.30
9915;DHT22;4996;48.746;9.174;2022-09-09T14:08:55;22.80;99.00
9915;DHT22;4996;48.746;9.174;2022-09-09T14:11:21;22.50;98.60
9915;DHT22;4996;48.746;9.174;2022-09-09T14:13:48;22.60;98.40
9915;DHT22;4996;48.746;9.174;2022-09-09T14:16:15;22.60;98.30
9915;DHT22;4996;48.746;9.174;2022-09-09T14:18:41;22.90;97.90
9915;DHT22;4996;48.746;9.174;2022-09-09T14:21:07;23.00;97.30
9915;DHT22;4996;48.746;9.174;2022-09-09T14:23:34;22.80;97.40
9915;DHT22;4996;48.746;9.174;2022-09-09T14:25:59;22.80;97.50
9915;DHT22;4996;48.746;9.174;2022-09-09T14:28:25;23.10;98.00
9915;DHT22;4996;48.746;9.174;2022-09-09T14:30:50;23.10;97.10
9915;DHT22;4996;48.746;9.174;2022-09-09T14:33:16;23.20;96.40
9915;DHT22;4996;48.746;9.174;2022-09-09T14:35:42;23.10;95.90
9915;DHT22;4996;48.746;9.174;2022-09-09T14:38:08;23.30;95.70
9915;DHT22;4996;48.746;9.174;2022-09-09T14:40:35;23.10;95.60
9915;DHT22;4996;48.746;9.174;2022-09-09T14:43:01;23.10;95.10
9915;DHT22;4996;48.746;9.174;2022-09-09T14:45:27;23.20;95.70
9915;DHT22;4996;48.746;9.174;2022-09-09T14:47:53;23.20;95.50
9915;DHT22;4996;48.746;9.174;2022-09-09T14:50:19;23.20;96.00
9915;DHT22;4996;48.746;9.174;2022-09-09T14:52:45;23.30;95.60
9915;DHT22;4996;48.746;9.174;2022-09-09T14:55:11;23.10;95.40
9915;DHT22;4996;48.746;9.174;2022-09-09T14:57:37;22.70;95.10
9915;DHT22;4996;48.746;9.174;2022-09-09T15:00:04;22.70;95.20
9915;DHT22;4996;48.746;9.174;2022-09-09T15:02:30;22.70;95.60
9915;DHT22;4996;48.746;9.174;2022-09-09T15:04:56;22.80;95.40
9915;DHT22;4996;48.746;9.174;2022-09-09T15:07:25;22.90;95.50
9915;DHT22;4996;48.746;9.174;2022-09-09T15:09:51;22.60;95.40
9915;DHT22;4996;48.746;9.174;2022-09-09T15:12:17;22.70;96.00
9915;DHT22;4996;48.746;9.174;2022-09-09T15:14:44;22.70;95.60
9915;DHT22;4996;48.746;9.174;2022-09-09T15:17:10;22.70;95.40
9915;DHT22;4996;48.746;9.174;2022-09-09T15:19:36;22.80;96.00
9915;DHT22;4996;48.746;9.174;2022-09-09T15:22:02;22.80;95.60
9915;DHT22;4996;48.746;9.174;2022-09-09T15:24:28;22.50;95.70
9915;DHT22;4996;48.746;9.174;2022-09-09T15:26:54;22.40;96.00
9915;DHT22;4996;48.746;9.174;2022-09-09T15:29:19;22.50;96.50
9915;DHT22;4996;48.746;9.174;2022-09-09T15:31:45;22.60;96.70
9915;DHT22;4996;48.746;9.174;2022-09-09T15:34:12;22.60;96.50
9915;DHT22;4996;48.746;9.174;2022-09-09T15:36:43;22.60;96.10
9915;DHT22;4996;48.746;9.174;2022-09-09T15:39:10;22.80;96.30
9915;DHT22;4996;48.746;9.174;2022-09-09T15:41:41;22.90;95.90
9915;DHT22;4996;48.746;9.174;2022-09-09T15:44:08;23.00;96.20
9915;DHT22;4996;48.746;9.174;2022-09-09T15:46:38;22.90;95.80
9915;DHT22;4996;48.746;9.174;2022-09-09T15:49:11;22.50;96.00
9915;DHT22;4996;48.746;9.174;2022-09-09T15:51:38;22.30;96.40
9915;DHT22;4996;48.746;9.174;2022-09-09T15:54:04;22.20;96.40
9915;DHT22;4996;48.746;9.174;2022-09-09T15:56:30;22.10;96.40
9915;DHT22;4996;48.746;9.174;2022-09-09T15:58:57;22.00;96.10
9915;DHT22;4996;48.746;9.174;2022-09-09T16:01:24;22.00;96.30
9915;DHT22;4996;48.746;9.174;2022-09-09T16:03:50;22.10;96.10
9915;DHT22;4996;48.746;9.174;2022-09-09T16:06:23;22.10;95.90
9915;DHT22;4996;48.746;9.174;2022-09-09T16:08:51;21.80;96.10
9915;DHT22;4996;48.746;9.174;2022-09-09T16:11:31;21.80;96.20
9915;DHT22;4996;48.746;9.174;2022-09-09T16:13:57;21.60;96.40
9915;DHT22;4996;48.746;9.174;2022-09-09T16:16:25;21.40;96.60
9915;DHT22;4996;48.746;9.174;2022-09-09T16:18:56;21.60;96.80
9915;DHT22;4996;48.746;9.174;2022-09-09T16:21:25;21.60;96.90
9915;DHT22;4996;48.746;9.174;2022-09-09T16:23:52;21.70;96.70
9915;DHT22;4996;48.746;9.174;2022-09-09T16:26:21;21.70;96.80
9915;DHT22;4996;48.746;9.174;2022-09-09T16:28:47;21.70;96.60
9915;DHT22;4996;48.746;9.174;2022-09-09T16:31:16;21.30;97.00
9915;DHT22;4996;48.746;9.174;2022-09-09T16:33:42;21.40;97.30
9915;DHT22;4996;48.746;9.174;2022-09-09T16:36:10;21.30;97.30
9915;DHT22;4996;48.746;9.174;2022-09-09T16:38:38;21.30;97.60
9915;DHT22;4996;48.746;9.174;2022-09-09T16:41:05;21.30;97.30
9915;DHT22;4996;48.746;9.174;2022-09-09T16:43:32;21.20;98.70
9915;DHT22;4996;48.746;9.174;2022-09-09T16:45:58;20.90;99.60
9915;DHT22;4996;48.746;9.174;2022-09-09T16:48:32;20.50;99.90
9915;DHT22;4996;48.746;9.174;2022-09-09T16:51:11;20.30;99.90
9915;DHT22;4996;48.746;9.174;2022-09-09T16:53:37;20.30;99.90
9915;DHT22;4996;48.746;9.174;2022-09-09T16:56:31;20.50;99.90
9915;DHT22;4996;48.746;9.174;2022-09-09T17:01:30;20.50;99.90
9915;DHT22;4996;48.746;9.174;2022-09-09T17:03:58;20.50;99.90
9915;DHT22;4996;48.746;9.174;2022-09-09T17:06:24;20.50;99.90
9915;DHT22;4996;48.746;9.174;2022-09-09T17:08:58;20.40;99.60
9915;DHT22;4996;48.746;9.174;2022-09-09T17:11:25;20.40;99.70
9915;DHT22;4996;48.746;9.174;2022-09-09T17:13:52;20.50;99.90
9915;DHT22;4996;48.746;9.174;2022-09-09T17:16:19;20.30;99.90
9915;DHT22;4996;48.746;9.174;2022-09-09T17:18:47;20.30;99.90
9915;DHT22;4996;48.746;9.174;2022-09-09T17:21:16;20.30;99.90
9915;DHT22;4996;48.746;9.174;2022-09-09T17:23:42;20.30;99.90
9915;DHT22;4996;48.746;9.174;2022-09-09T17:26:11;20.10;99.90
9915;DHT22;4996;48.746;9.174;2022-09-09T17:28:38;20.10;99.90
9915;DHT22;4996;48.746;9.174;2022-09-09T17:31:06;19.90;99.90
9915;DHT22;4996;48.746;9.174;2022-09-09T17:33:34;19.70;99.90
9915;DHT22;4996;48.746;9.174;2022-09-09T17:36:09;19.70;99.90
9915;DHT22;4996;48.746;9.174;2022-09-09T17:38:36;19.70;99.90
9915;DHT22;4996;48.746;9.174;2022-09-09T17:41:10;19.70;99.90
9915;DHT22;4996;48.746;9.174;2022-09-09T17:43:37;19.70;99.90
9915;DHT22;4996;48.746;9.174;2022-09-09T17:46:11;19.60;99.90
9915;DHT22;4996;48.746;9.174;2022-09-09T17:48:38;19.60;99.90
9915;DHT22;4996;48.746;9.174;2022-09-09T17:51:05;19.60;99.90
9915;DHT22;4996;48.746;9.174;2022-09-09T17:53:40;19.60;99.90
9915;DHT22;4996;48.746;9.174;2022-09-09T17:56:08;19.60;99.90
9915;DHT22;4996;48.746;9.174;2022-09-09T17:58:34;19.60;99.90
9915;DHT22;4996;48.746;9.174;2022-09-09T18:01:05;19.60;99.90
9915;DHT22;4996;48.746;9.174;2022-09-09T18:03:33;19.50;99.90
9915;DHT22;4996;48.746;9.174;2022-09-09T18:06:01;19.50;99.90
9915;DHT22;4996;48.746;9.174;2022-09-09T18:08:27;19.40;99.90
9915;DHT22;4996;48.746;9.174;2022-09-09T18:10:54;19.40;99.90
9915;DHT22;4996;48.746;9.174;2022-09-09T18:13:20;19.40;99.90
9915;DHT22;4996;48.746;9.174;2022-09-09T18:15:46;19.40;99.90
9915;DHT22;4996;48.746;9.174;2022-09-09T18:18:12;19.40;99.90
9915;DHT22;4996;48.746;9.174;2022-09-09T18:20:38;19.30;99.90
9915;DHT22;4996;48.746;9.174;2022-09-09T18:23:05;19.40;99.90
9915;DHT22;4996;48.746;9.174;2022-09-09T18:25:30;19.40;99.90